Astra — PB4187 — position and weather

sailwx.info

Track history (hours):
 
Tides and Currents Weather Stations Pressure Air Temp Water Temp Dewpoint Dewpoint Depression Visibility Wind Speed Wind Dir Waves Ship Positions

Astra

Last reported at 2017-Apr-30 11:00 UTC. Time now 2017-Apr-30 11:07 UTC.
Position N 51°36' E 006°36'.

Length 110 m.

Type: Ship. MMSI: 244650752.

Date/timePositionNaut miles runAvg speedWind from/ knotsBaromVisibWave heightAir tempDewpointWater temp
2017-Apr-30 11:00N 51°36' E 006°36'4 8.1
2017-Apr-30 10:30N 51°34' E 006°41'4 9.0
2017-Apr-30 10:00N 51°30' E 006°42'4 8.5
2017-Apr-30 09:30N 51°25' E 006°44'5 9.3
2017-Apr-30 08:58N 51°21' E 006°39'5 9.1
2017-Apr-30 08:25N 51°17' E 006°42'4 9.9
2017-Apr-30 08:00N 51°13' E 006°46'2 4.3
2017-Apr-30 07:30N 51°11' E 006°47'13 8.1
2017-Apr-30 05:55N 51°00' E 006°58'4 8.9
2017-Apr-30 05:26N 50°56' E 006°58'410.4
2017-Apr-30 05:00N 50°53' E 007°03'4 7.5
2017-Apr-30 04:28N 50°49' E 007°01'4 8.3
2017-Apr-30 03:59N 50°46' E 007°05'0 0.0
2017-Apr-30 03:27N 50°46' E 007°05'0 0.0
2017-Apr-30 03:00N 50°46' E 007°05'0 0.0
2017-Apr-30 02:30N 50°46' E 007°05'0 0.0
2017-Apr-30 02:00N 50°46' E 007°05'0 0.0
2017-Apr-30 01:29N 50°46' E 007°05'0 0.0
2017-Apr-30 01:00N 50°46' E 007°05'0 0.0
2017-Apr-30 00:30N 50°46' E 007°05'0 0.0
2017-Apr-30 00:00N 50°46' E 007°05'0 0.0
2017-Apr-29 23:30N 50°46' E 007°05'0 0.0
2017-Apr-29 22:59N 50°46' E 007°05'0 0.0
2017-Apr-29 22:30N 50°46' E 007°05'0 0.0
2017-Apr-29 22:00N 50°46' E 007°05'0 0.0
2017-Apr-29 21:30N 50°46' E 007°05'0 0.0
2017-Apr-29 21:00N 50°46' E 007°05'0 0.0
2017-Apr-29 20:30N 50°46' E 007°05'0 0.1
2017-Apr-29 20:00N 50°46' E 007°05'510.5
2017-Apr-29 19:30N 50°42' E 007°10'83 8.1
2017-Apr-29 09:18N 49°34' E 008°25'310.8
2017-Apr-29 08:59N 49°31' E 008°26'4 8.0
2017-Apr-29 08:28N 49°27' E 008°27'13 9.2
2017-Apr-29 07:00N 49°13' E 008°23'  
2017-Apr-26 04:22N 49°12' E 008°23'100 3.8
2017-Apr-25 02:21N 50°41' E 007°11'3 5.2
2017-Apr-25 01:50N 50°43' E 007°09'2 4.8
2017-Apr-25 01:29N 50°44' E 007°07'2 4.9
2017-Apr-25 01:00N 50°46' E 007°04'2 4.9
2017-Apr-25 00:30N 50°48' E 007°02'2 4.3
2017-Apr-24 23:58N 50°50' E 006°59'2 4.1
2017-Apr-24 23:27N 50°51' E 007°01'2 4.1
2017-Apr-24 22:52N 50°54' E 007°02'2 4.7
2017-Apr-24 22:28N 50°54' E 006°59'3 5.0
2017-Apr-24 21:56N 50°56' E 006°58'2 5.4
2017-Apr-24 21:30N 50°58' E 006°60'12 4.4
2017-Apr-24 18:50N 51°09' E 006°51'1 2.7
2017-Apr-24 18:27N 51°09' E 006°50'1 2.9
2017-Apr-24 18:00N 51°10' E 006°48'2 4.0
2017-Apr-24 17:30N 51°11' E 006°45'2 4.8
2017-Apr-24 17:00N 51°13' E 006°44'2 3.3
2017-Apr-24 16:30N 51°13' E 006°46'3 5.1
2017-Apr-24 15:57N 51°16' E 006°43'8 3.5
2017-Apr-24 13:43N 51°23' E 006°44'1 5.7
2017-Apr-24 13:30N 51°25' E 006°45'3 5.3
2017-Apr-24 13:00N 51°27' E 006°43'2 4.8
2017-Apr-24 12:30N 51°29' E 006°41'2 4.7
2017-Apr-24 12:00N 51°31' E 006°43'3 5.1
2017-Apr-24 11:30N 51°33' E 006°41'4 3.7
2017-Apr-24 10:27N 51°35' E 006°36'2 5.7
2017-Apr-24 10:00N 51°38' E 006°36'2 4.2
2017-Apr-24 09:30N 51°39' E 006°33'3 6.0
2017-Apr-24 09:00N 51°40' E 006°29'3 5.8
2017-Apr-24 08:30N 51°43' E 006°26'2 4.8
2017-Apr-24 08:00N 51°45' E 006°25'3 6.3
2017-Apr-24 07:30N 51°46' E 006°20'3 6.7
2017-Apr-24 07:00N 51°49' E 006°18'3 6.6
2017-Apr-24 06:30N 51°50' E 006°13'3 6.2
2017-Apr-24 06:00N 51°51' E 006°08'3 6.4
2017-Apr-24 05:30N 51°52' E 006°03'0 0.2
2017-Apr-24 05:00N 51°52' E 006°03'0 0.3
2017-Apr-24 04:30N 51°52' E 006°03'0 0.7
2017-Apr-24 04:00N 51°52' E 006°03'2 4.7
2017-Apr-24 03:30N 51°52' E 005°59'3 5.9
2017-Apr-24 03:00N 51°52' E 005°54'3 5.1
2017-Apr-24 02:30N 51°52' E 005°50'3 6.6
2017-Apr-24 02:00N 51°53' E 005°45'3 6.5
2017-Apr-24 01:30N 51°54' E 005°40'3 6.5
2017-Apr-24 01:00N 51°54' E 005°35'3 6.5
2017-Apr-24 00:30N 51°53' E 005°30'3 6.0
2017-Apr-23 23:58N 51°52' E 005°25'3 6.6
2017-Apr-23 23:30N 51°49' E 005°23'3 4.9
2017-Apr-23 22:57N 51°49' E 005°18'4 6.8
2017-Apr-23 22:25N 51°49' E 005°13'3 6.8
2017-Apr-23 21:57N 51°49' E 005°08'3 6.4
2017-Apr-23 21:29N 51°49' E 005°03'4 7.2
2017-Apr-23 21:00N 51°50' E 004°57'4 7.3
2017-Apr-23 20:30N 51°48' E 004°52'4 7.7
2017-Apr-23 20:00N 51°47' E 004°46'4 8.0
2017-Apr-23 19:30N 51°44' E 004°42'5 8.5
2017-Apr-23 18:58N 51°42' E 004°35'4 8.7
2017-Apr-23 18:30N 51°42' E 004°29'3 5.0
2017-Apr-23 17:59N 51°41' E 004°24'13 5.6
2017-Apr-23 15:35N 51°37' E 004°04'1 9.0
2017-Apr-23 15:30N 51°37' E 004°03'4 7.7
2017-Apr-23 15:00N 51°35' E 003°58'5 9.6
2017-Apr-23 14:30N 51°30' E 004°01'4 4.1
2017-Apr-23 13:30N 51°27' E 003°58'3 6.8
2017-Apr-23 13:00N 51°24' E 003°55'3 6.9
2017-Apr-23 12:30N 51°22' E 003°50'5 9.1
2017-Apr-23 11:59N 51°24' E 003°44'22 1.1
2017-Apr-22 15:53N 51°40' E 004°10'0 0.1
2017-Apr-22 15:30N 51°40' E 004°10'0 0.0
2017-Apr-22 14:57N 51°40' E 004°10'0 0.0
2017-Apr-22 14:29N 51°40' E 004°10'4 4.3
2017-Apr-22 13:30N 51°39' E 004°17'4 8.6
2017-Apr-22 13:00N 51°41' E 004°23'1 2.4
2017-Apr-22 12:30N 51°41' E 004°25'2 4.1
2017-Apr-22 12:00N 51°42' E 004°28'4 8.9
2017-Apr-22 11:30N 51°42' E 004°35'4 8.3
2017-Apr-22 11:00N 51°46' E 004°38'3 5.6
2017-Apr-22 10:30N 51°48' E 004°35'0 0.0
2017-Apr-22 10:00N 51°48' E 004°35'0 0.0
2017-Apr-22 09:30N 51°48' E 004°35'0 0.0
2017-Apr-22 09:00N 51°48' E 004°35'0 0.0
2017-Apr-22 08:30N 51°48' E 004°35'0 0.0
2017-Apr-22 08:00N 51°48' E 004°35'0 0.0
2017-Apr-22 07:30N 51°48' E 004°35'0 0.0
2017-Apr-22 07:00N 51°48' E 004°35'0 0.0
2017-Apr-22 06:30N 51°48' E 004°35'0 0.0
2017-Apr-22 06:00N 51°48' E 004°35'0 0.0
2017-Apr-22 05:30N 51°48' E 004°35'0 0.0
2017-Apr-22 05:00N 51°48' E 004°35'0 0.0
2017-Apr-22 04:30N 51°48' E 004°35'0 0.0
2017-Apr-22 04:00N 51°48' E 004°35'0 0.0
2017-Apr-22 03:30N 51°48' E 004°35'0 0.0
2017-Apr-22 03:00N 51°48' E 004°35'0 0.0
2017-Apr-22 02:30N 51°48' E 004°35'0 0.0
2017-Apr-22 02:00N 51°48' E 004°35'0 0.0
2017-Apr-22 01:30N 51°48' E 004°35'0 0.0
2017-Apr-22 01:00N 51°48' E 004°35'0 0.0
2017-Apr-22 00:30N 51°48' E 004°35'0 0.0
2017-Apr-22 00:00N 51°48' E 004°35'0 0.0
2017-Apr-21 23:30N 51°48' E 004°35'0 0.0
2017-Apr-21 23:00N 51°48' E 004°35'0 0.0
2017-Apr-21 22:30N 51°48' E 004°35'0 0.0
2017-Apr-21 22:00N 51°48' E 004°35'0 0.0
2017-Apr-21 21:30N 51°48' E 004°35'0 0.0
2017-Apr-21 21:00N 51°48' E 004°35'0 0.0
2017-Apr-21 20:30N 51°48' E 004°35'0 0.0
2017-Apr-21 20:00N 51°48' E 004°35'0 0.0
2017-Apr-21 19:30N 51°48' E 004°35'0 0.0
2017-Apr-21 19:00N 51°48' E 004°35'0 0.0
2017-Apr-21 18:30N 51°48' E 004°35'0 0.0
2017-Apr-21 18:00N 51°48' E 004°35'0 0.0
2017-Apr-21 17:30N 51°48' E 004°35'0 0.0
2017-Apr-21 17:00N 51°48' E 004°35'0 0.0
2017-Apr-21 16:30N 51°48' E 004°35'0 0.0
2017-Apr-21 16:00N 51°48' E 004°35'0 0.0
2017-Apr-21 15:30N 51°48' E 004°35'0 0.0
2017-Apr-21 15:00N 51°48' E 004°35'0 0.0
2017-Apr-21 14:30N 51°48' E 004°35'0 0.0
2017-Apr-21 13:30N 51°48' E 004°35'0 0.0
2017-Apr-21 13:00N 51°48' E 004°35'0 0.0
2017-Apr-21 12:30N 51°48' E 004°35'0 0.0
2017-Apr-21 12:00N 51°48' E 004°35'0 0.0
2017-Apr-21 11:30N 51°48' E 004°35'0 0.0
2017-Apr-21 11:00N 51°48' E 004°35'0 0.0
2017-Apr-21 10:30N 51°48' E 004°35'0 0.0
2017-Apr-21 10:00N 51°48' E 004°35'0 0.0
2017-Apr-21 09:30N 51°48' E 004°35'0 0.0
2017-Apr-21 09:00N 51°48' E 004°35'0 0.0
2017-Apr-21 08:30N 51°48' E 004°35'0 0.0
2017-Apr-21 08:00N 51°48' E 004°35'0 0.0
2017-Apr-21 07:30N 51°48' E 004°35'0 0.0
2017-Apr-21 07:00N 51°48' E 004°35'0 0.0
2017-Apr-21 06:30N 51°48' E 004°35'0 0.0
2017-Apr-21 06:00N 51°48' E 004°35'0 0.0
2017-Apr-21 05:30N 51°48' E 004°35'0 0.0
2017-Apr-21 05:00N 51°48' E 004°35'0 0.0
2017-Apr-21 04:30N 51°48' E 004°35'0 0.0
2017-Apr-21 04:00N 51°48' E 004°35'0 0.0
2017-Apr-21 03:30N 51°48' E 004°35'0 0.0
2017-Apr-21 03:00N 51°48' E 004°35'0 0.0
2017-Apr-21 02:30N 51°48' E 004°35'0 0.0
2017-Apr-21 02:00N 51°48' E 004°35'0 0.0
2017-Apr-21 01:30N 51°48' E 004°35'0 0.0
2017-Apr-21 01:00N 51°48' E 004°35'0 0.0
2017-Apr-21 00:30N 51°48' E 004°35'0 0.0
2017-Apr-21 00:00N 51°48' E 004°35'0 0.0
2017-Apr-20 23:30N 51°48' E 004°35'0 0.0
2017-Apr-20 23:00N 51°48' E 004°35'0 0.0
2017-Apr-20 22:30N 51°48' E 004°35'0 0.0
2017-Apr-20 22:00N 51°48' E 004°35'0 0.0
2017-Apr-20 21:30N 51°48' E 004°35'0 0.0
2017-Apr-20 21:00N 51°48' E 004°35'0 0.0
2017-Apr-20 20:30N 51°48' E 004°35'0 0.0
2017-Apr-20 20:00N 51°48' E 004°35'0 0.0
2017-Apr-20 19:30N 51°48' E 004°35'0 0.0
2017-Apr-20 19:00N 51°48' E 004°35'0 0.0
2017-Apr-20 18:30N 51°48' E 004°35'0 0.0
2017-Apr-20 18:00N 51°48' E 004°35'0 0.0
2017-Apr-20 17:30N 51°48' E 004°35'0 0.0
2017-Apr-20 17:00N 51°48' E 004°35'0 0.0
2017-Apr-20 16:30N 51°48' E 004°35'0 0.0
2017-Apr-20 16:00N 51°48' E 004°35'0 0.0
2017-Apr-20 15:30N 51°48' E 004°35'0 0.0
2017-Apr-20 15:00N 51°48' E 004°35'0 0.0
2017-Apr-20 14:30N 51°48' E 004°35'0 0.0
2017-Apr-20 13:30N 51°48' E 004°35'  
Track history (hours):
 
Tides and Currents Weather Stations Pressure Air Temp Water Temp Dewpoint Dewpoint Depression Visibility Wind Speed Wind Dir Waves Ship Positions

Astra

Last reported at 2017-Apr-30 11:00 UTC. Time now 2017-Apr-30 11:07 UTC.
Position N 51°36' E 006°36'.

Length 110 m.

Type: Ship. MMSI: 244650752.

Date/timePositionNaut miles runAvg speedWind from/ knotsBaromVisibWave heightAir tempDewpointWater temp
2017-Apr-30 11:00N 51°36' E 006°36'4 8.1
2017-Apr-30 10:30N 51°34' E 006°41'4 9.0
2017-Apr-30 10:00N 51°30' E 006°42'4 8.5
2017-Apr-30 09:30N 51°25' E 006°44'5 9.3
2017-Apr-30 08:58N 51°21' E 006°39'5 9.1
2017-Apr-30 08:25N 51°17' E 006°42'4 9.9
2017-Apr-30 08:00N 51°13' E 006°46'2 4.3
2017-Apr-30 07:30N 51°11' E 006°47'13 8.1
2017-Apr-30 05:55N 51°00' E 006°58'4 8.9
2017-Apr-30 05:26N 50°56' E 006°58'410.4
2017-Apr-30 05:00N 50°53' E 007°03'4 7.5
2017-Apr-30 04:28N 50°49' E 007°01'4 8.3
2017-Apr-30 03:59N 50°46' E 007°05'0 0.0
2017-Apr-30 03:27N 50°46' E 007°05'0 0.0
2017-Apr-30 03:00N 50°46' E 007°05'0 0.0
2017-Apr-30 02:30N 50°46' E 007°05'0 0.0
2017-Apr-30 02:00N 50°46' E 007°05'0 0.0
2017-Apr-30 01:29N 50°46' E 007°05'0 0.0
2017-Apr-30 01:00N 50°46' E 007°05'0 0.0
2017-Apr-30 00:30N 50°46' E 007°05'0 0.0
2017-Apr-30 00:00N 50°46' E 007°05'0 0.0
2017-Apr-29 23:30N 50°46' E 007°05'0 0.0
2017-Apr-29 22:59N 50°46' E 007°05'0 0.0
2017-Apr-29 22:30N 50°46' E 007°05'0 0.0
2017-Apr-29 22:00N 50°46' E 007°05'0 0.0
2017-Apr-29 21:30N 50°46' E 007°05'0 0.0
2017-Apr-29 21:00N 50°46' E 007°05'0 0.0
2017-Apr-29 20:30N 50°46' E 007°05'0 0.1
2017-Apr-29 20:00N 50°46' E 007°05'510.5
2017-Apr-29 19:30N 50°42' E 007°10'83 8.1
2017-Apr-29 09:18N 49°34' E 008°25'310.8
2017-Apr-29 08:59N 49°31' E 008°26'4 8.0
2017-Apr-29 08:28N 49°27' E 008°27'13 9.2
2017-Apr-29 07:00N 49°13' E 008°23'  
2017-Apr-26 04:22N 49°12' E 008°23'100 3.8
2017-Apr-25 02:21N 50°41' E 007°11'3 5.2
2017-Apr-25 01:50N 50°43' E 007°09'2 4.8
2017-Apr-25 01:29N 50°44' E 007°07'2 4.9
2017-Apr-25 01:00N 50°46' E 007°04'2 4.9
2017-Apr-25 00:30N 50°48' E 007°02'2 4.3
2017-Apr-24 23:58N 50°50' E 006°59'2 4.1
2017-Apr-24 23:27N 50°51' E 007°01'2 4.1
2017-Apr-24 22:52N 50°54' E 007°02'2 4.7
2017-Apr-24 22:28N 50°54' E 006°59'3 5.0
2017-Apr-24 21:56N 50°56' E 006°58'2 5.4
2017-Apr-24 21:30N 50°58' E 006°60'12 4.4
2017-Apr-24 18:50N 51°09' E 006°51'1 2.7
2017-Apr-24 18:27N 51°09' E 006°50'1 2.9
2017-Apr-24 18:00N 51°10' E 006°48'2 4.0
2017-Apr-24 17:30N 51°11' E 006°45'2 4.8
2017-Apr-24 17:00N 51°13' E 006°44'2 3.3
2017-Apr-24 16:30N 51°13' E 006°46'3 5.1
2017-Apr-24 15:57N 51°16' E 006°43'8 3.5
2017-Apr-24 13:43N 51°23' E 006°44'1 5.7
2017-Apr-24 13:30N 51°25' E 006°45'3 5.3
2017-Apr-24 13:00N 51°27' E 006°43'2 4.8
2017-Apr-24 12:30N 51°29' E 006°41'2 4.7
2017-Apr-24 12:00N 51°31' E 006°43'3 5.1
2017-Apr-24 11:30N 51°33' E 006°41'4 3.7
2017-Apr-24 10:27N 51°35' E 006°36'2 5.7
2017-Apr-24 10:00N 51°38' E 006°36'2 4.2
2017-Apr-24 09:30N 51°39' E 006°33'3 6.0
2017-Apr-24 09:00N 51°40' E 006°29'3 5.8
2017-Apr-24 08:30N 51°43' E 006°26'2 4.8
2017-Apr-24 08:00N 51°45' E 006°25'3 6.3
2017-Apr-24 07:30N 51°46' E 006°20'3 6.7
2017-Apr-24 07:00N 51°49' E 006°18'3 6.6
2017-Apr-24 06:30N 51°50' E 006°13'3 6.2
2017-Apr-24 06:00N 51°51' E 006°08'3 6.4
2017-Apr-24 05:30N 51°52' E 006°03'0 0.2
2017-Apr-24 05:00N 51°52' E 006°03'0 0.3
2017-Apr-24 04:30N 51°52' E 006°03'0 0.7
2017-Apr-24 04:00N 51°52' E 006°03'2 4.7
2017-Apr-24 03:30N 51°52' E 005°59'3 5.9
2017-Apr-24 03:00N 51°52' E 005°54'3 5.1
2017-Apr-24 02:30N 51°52' E 005°50'3 6.6
2017-Apr-24 02:00N 51°53' E 005°45'3 6.5
2017-Apr-24 01:30N 51°54' E 005°40'3 6.5
2017-Apr-24 01:00N 51°54' E 005°35'3 6.5
2017-Apr-24 00:30N 51°53' E 005°30'3 6.0
2017-Apr-23 23:58N 51°52' E 005°25'3 6.6
2017-Apr-23 23:30N 51°49' E 005°23'3 4.9
2017-Apr-23 22:57N 51°49' E 005°18'4 6.8
2017-Apr-23 22:25N 51°49' E 005°13'3 6.8
2017-Apr-23 21:57N 51°49' E 005°08'3 6.4
2017-Apr-23 21:29N 51°49' E 005°03'4 7.2
2017-Apr-23 21:00N 51°50' E 004°57'4 7.3
2017-Apr-23 20:30N 51°48' E 004°52'4 7.7
2017-Apr-23 20:00N 51°47' E 004°46'4 8.0
2017-Apr-23 19:30N 51°44' E 004°42'5 8.5
2017-Apr-23 18:58N 51°42' E 004°35'4 8.7
2017-Apr-23 18:30N 51°42' E 004°29'3 5.0
2017-Apr-23 17:59N 51°41' E 004°24'13 5.6
2017-Apr-23 15:35N 51°37' E 004°04'1 9.0
2017-Apr-23 15:30N 51°37' E 004°03'4 7.7
2017-Apr-23 15:00N 51°35' E 003°58'5 9.6
2017-Apr-23 14:30N 51°30' E 004°01'4 4.1
2017-Apr-23 13:30N 51°27' E 003°58'3 6.8
2017-Apr-23 13:00N 51°24' E 003°55'3 6.9
2017-Apr-23 12:30N 51°22' E 003°50'5 9.1
2017-Apr-23 11:59N 51°24' E 003°44'22 1.1
2017-Apr-22 15:53N 51°40' E 004°10'0 0.1
2017-Apr-22 15:30N 51°40' E 004°10'0 0.0
2017-Apr-22 14:57N 51°40' E 004°10'0 0.0
2017-Apr-22 14:29N 51°40' E 004°10'4 4.3
2017-Apr-22 13:30N 51°39' E 004°17'4 8.6
2017-Apr-22 13:00N 51°41' E 004°23'1 2.4
2017-Apr-22 12:30N 51°41' E 004°25'2 4.1
2017-Apr-22 12:00N 51°42' E 004°28'4 8.9
2017-Apr-22 11:30N 51°42' E 004°35'4 8.3
2017-Apr-22 11:00N 51°46' E 004°38'3 5.6
2017-Apr-22 10:30N 51°48' E 004°35'0 0.0
2017-Apr-22 10:00N 51°48' E 004°35'0 0.0
2017-Apr-22 09:30N 51°48' E 004°35'0 0.0
2017-Apr-22 09:00N 51°48' E 004°35'0 0.0
2017-Apr-22 08:30N 51°48' E 004°35'0 0.0
2017-Apr-22 08:00N 51°48' E 004°35'0 0.0
2017-Apr-22 07:30N 51°48' E 004°35'0 0.0
2017-Apr-22 07:00N 51°48' E 004°35'0 0.0
2017-Apr-22 06:30N 51°48' E 004°35'0 0.0
2017-Apr-22 06:00N 51°48' E 004°35'0 0.0
2017-Apr-22 05:30N 51°48' E 004°35'0 0.0
2017-Apr-22 05:00N 51°48' E 004°35'0 0.0
2017-Apr-22 04:30N 51°48' E 004°35'0 0.0
2017-Apr-22 04:00N 51°48' E 004°35'0 0.0
2017-Apr-22 03:30N 51°48' E 004°35'0 0.0
2017-Apr-22 03:00N 51°48' E 004°35'0 0.0
2017-Apr-22 02:30N 51°48' E 004°35'0 0.0
2017-Apr-22 02:00N 51°48' E 004°35'0 0.0
2017-Apr-22 01:30N 51°48' E 004°35'0 0.0
2017-Apr-22 01:00N 51°48' E 004°35'0 0.0
2017-Apr-22 00:30N 51°48' E 004°35'0 0.0
2017-Apr-22 00:00N 51°48' E 004°35'0 0.0
2017-Apr-21 23:30N 51°48' E 004°35'0 0.0
2017-Apr-21 23:00N 51°48' E 004°35'0 0.0
2017-Apr-21 22:30N 51°48' E 004°35'0 0.0
2017-Apr-21 22:00N 51°48' E 004°35'0 0.0
2017-Apr-21 21:30N 51°48' E 004°35'0 0.0
2017-Apr-21 21:00N 51°48' E 004°35'0 0.0
2017-Apr-21 20:30N 51°48' E 004°35'0 0.0
2017-Apr-21 20:00N 51°48' E 004°35'0 0.0
2017-Apr-21 19:30N 51°48' E 004°35'0 0.0
2017-Apr-21 19:00N 51°48' E 004°35'0 0.0
2017-Apr-21 18:30N 51°48' E 004°35'0 0.0
2017-Apr-21 18:00N 51°48' E 004°35'0 0.0
2017-Apr-21 17:30N 51°48' E 004°35'0 0.0
2017-Apr-21 17:00N 51°48' E 004°35'0 0.0
2017-Apr-21 16:30N 51°48' E 004°35'0 0.0
2017-Apr-21 16:00N 51°48' E 004°35'0 0.0
2017-Apr-21 15:30N 51°48' E 004°35'0 0.0
2017-Apr-21 15:00N 51°48' E 004°35'0 0.0
2017-Apr-21 14:30N 51°48' E 004°35'0 0.0
2017-Apr-21 13:30N 51°48' E 004°35'0 0.0
2017-Apr-21 13:00N 51°48' E 004°35'0 0.0
2017-Apr-21 12:30N 51°48' E 004°35'0 0.0
2017-Apr-21 12:00N 51°48' E 004°35'0 0.0
2017-Apr-21 11:30N 51°48' E 004°35'0 0.0
2017-Apr-21 11:00N 51°48' E 004°35'0 0.0
2017-Apr-21 10:30N 51°48' E 004°35'0 0.0
2017-Apr-21 10:00N 51°48' E 004°35'0 0.0
2017-Apr-21 09:30N 51°48' E 004°35'0 0.0
2017-Apr-21 09:00N 51°48' E 004°35'0 0.0
2017-Apr-21 08:30N 51°48' E 004°35'0 0.0
2017-Apr-21 08:00N 51°48' E 004°35'0 0.0
2017-Apr-21 07:30N 51°48' E 004°35'0 0.0
2017-Apr-21 07:00N 51°48' E 004°35'0 0.0
2017-Apr-21 06:30N 51°48' E 004°35'0 0.0
2017-Apr-21 06:00N 51°48' E 004°35'0 0.0
2017-Apr-21 05:30N 51°48' E 004°35'0 0.0
2017-Apr-21 05:00N 51°48' E 004°35'0 0.0
2017-Apr-21 04:30N 51°48' E 004°35'0 0.0
2017-Apr-21 04:00N 51°48' E 004°35'0 0.0
2017-Apr-21 03:30N 51°48' E 004°35'0 0.0
2017-Apr-21 03:00N 51°48' E 004°35'0 0.0
2017-Apr-21 02:30N 51°48' E 004°35'0 0.0
2017-Apr-21 02:00N 51°48' E 004°35'0 0.0
2017-Apr-21 01:30N 51°48' E 004°35'0 0.0
2017-Apr-21 01:00N 51°48' E 004°35'0 0.0
2017-Apr-21 00:30N 51°48' E 004°35'0 0.0
2017-Apr-21 00:00N 51°48' E 004°35'0 0.0
2017-Apr-20 23:30N 51°48' E 004°35'0 0.0
2017-Apr-20 23:00N 51°48' E 004°35'0 0.0
2017-Apr-20 22:30N 51°48' E 004°35'0 0.0
2017-Apr-20 22:00N 51°48' E 004°35'0 0.0
2017-Apr-20 21:30N 51°48' E 004°35'0 0.0
2017-Apr-20 21:00N 51°48' E 004°35'0 0.0
2017-Apr-20 20:30N 51°48' E 004°35'0 0.0
2017-Apr-20 20:00N 51°48' E 004°35'0 0.0
2017-Apr-20 19:30N 51°48' E 004°35'0 0.0
2017-Apr-20 19:00N 51°48' E 004°35'0 0.0
2017-Apr-20 18:30N 51°48' E 004°35'0 0.0
2017-Apr-20 18:00N 51°48' E 004°35'0 0.0
2017-Apr-20 17:30N 51°48' E 004°35'0 0.0
2017-Apr-20 17:00N 51°48' E 004°35'0 0.0
2017-Apr-20 16:30N 51°48' E 004°35'0 0.0
2017-Apr-20 16:00N 51°48' E 004°35'0 0.0
2017-Apr-20 15:30N 51°48' E 004°35'0 0.0
2017-Apr-20 15:00N 51°48' E 004°35'0 0.0
2017-Apr-20 14:30N 51°48' E 004°35'0 0.0
2017-Apr-20 13:30N 51°48' E 004°35'  

Dump ship's entire track history